createdAt,value
2022-12-22T00:00:38.967Z,4.43
2022-12-22T00:05:59.857Z,4.31
2022-12-22T00:11:20.540Z,4.47
2022-12-22T00:16:47.796Z,4.26
2022-12-22T00:22:08.451Z,4.14
2022-12-22T00:27:35.391Z,4.26
2022-12-22T00:32:57.260Z,4.14
2022-12-22T00:38:18.138Z,3.99
2022-12-22T00:43:38.351Z,4.12
2022-12-22T00:49:02.482Z,4.08
2022-12-22T00:54:28.248Z,3.94
2022-12-22T00:59:50.323Z,3.87
2022-12-22T01:05:14.297Z,4.02
2022-12-22T01:10:35.096Z,3.82
2022-12-22T01:15:57.430Z,3.97
2022-12-22T01:21:18.143Z,3.94
2022-12-22T01:26:39.649Z,3.78
2022-12-22T01:32:01.080Z,3.78
2022-12-22T01:37:21.791Z,3.81
2022-12-22T01:42:43.164Z,3.60
2022-12-22T01:48:03.947Z,3.53
2022-12-22T01:53:27.739Z,3.62
2022-12-22T01:58:54.550Z,3.59
2022-12-22T02:04:15.726Z,3.39
2022-12-22T02:10:01.440Z,3.56
2022-12-22T02:16:09.570Z,3.45
2022-12-22T02:21:35.736Z,3.47
2022-12-22T02:27:06.756Z,3.50
2022-12-22T02:32:27.492Z,3.16
2022-12-22T02:37:58.542Z,3.46
2022-12-22T02:43:32.071Z,3.43
2022-12-22T02:49:12.064Z,3.48
2022-12-22T02:54:35.513Z,3.28
2022-12-22T02:59:56.389Z,3.32
2022-12-22T03:05:16.787Z,3.52
2022-12-22T03:10:37.641Z,3.47
2022-12-22T03:15:58.129Z,3.51
2022-12-22T03:21:19.116Z,3.35
2022-12-22T03:26:21.143Z,3.48
2022-12-22T03:31:23.361Z,3.10
2022-12-22T03:36:25.617Z,3.14
2022-12-22T03:41:46.410Z,3.24
2022-12-22T03:46:48.635Z,3.20
2022-12-22T03:51:52.490Z,3.35
2022-12-22T03:56:55.022Z,3.36
2022-12-22T04:01:57.360Z,3.31
2022-12-22T04:06:59.813Z,3.24
2022-12-22T04:12:20.500Z,3.19
2022-12-22T04:17:22.717Z,3.11
2022-12-22T04:22:24.875Z,3.04
2022-12-22T04:27:27.042Z,3.17
2022-12-22T04:32:29.248Z,3.05
2022-12-22T04:37:31.538Z,3.09
2022-12-22T04:42:34.387Z,3.09
2022-12-22T04:47:36.722Z,3.13
2022-12-22T04:52:39.017Z,3.03
2022-12-22T04:57:41.352Z,3.00
2022-12-22T05:02:43.732Z,3.30
2022-12-22T05:07:46.061Z,3.09
2022-12-22T05:12:57.263Z,2.95
2022-12-22T05:18:00.863Z,3.16
2022-12-22T05:23:03.226Z,2.88
2022-12-22T05:28:05.548Z,2.97
2022-12-22T05:33:09.771Z,2.93
2022-12-22T05:38:14.839Z,3.04
2022-12-22T05:43:18.072Z,2.73
2022-12-22T05:48:27.375Z,2.55
2022-12-22T05:53:35.765Z,2.87
2022-12-22T05:58:39.394Z,2.89
2022-12-22T06:03:41.706Z,2.96
2022-12-22T06:08:43.879Z,2.91
2022-12-22T06:13:46.619Z,2.89
2022-12-22T06:18:48.985Z,2.81
2022-12-22T06:23:51.356Z,2.87
2022-12-22T06:28:55.169Z,2.95
2022-12-22T06:33:58.077Z,3.13
2022-12-22T06:39:00.343Z,3.20
2022-12-22T06:44:02.616Z,3.01
2022-12-22T06:49:06.110Z,3.39
2022-12-22T06:54:08.340Z,3.48
2022-12-22T06:59:10.598Z,3.64
2022-12-22T07:04:17.425Z,3.87
2022-12-22T07:09:19.774Z,3.84
2022-12-22T07:14:22.707Z,3.96
2022-12-22T07:19:27.883Z,3.96
2022-12-22T07:24:32.578Z,4.05
2022-12-22T07:29:36.770Z,4.34
2022-12-22T07:34:39.021Z,4.52
2022-12-22T07:39:41.343Z,4.68
2022-12-22T07:44:43.476Z,4.56
2022-12-22T07:50:04.194Z,4.81
2022-12-22T07:55:07.281Z,5.02
2022-12-22T08:00:12.624Z,5.04
2022-12-22T08:05:17.945Z,5.21
2022-12-22T08:10:21.986Z,5.24
2022-12-22T08:15:24.243Z,5.36
2022-12-22T08:20:33.766Z,5.31
2022-12-22T08:25:36.356Z,5.66
2022-12-22T08:30:38.900Z,5.93
2022-12-22T08:35:41.492Z,6.03
2022-12-22T08:40:45.782Z,6.31
2022-12-22T08:45:48.074Z,6.12
2022-12-22T08:50:50.315Z,6.07
2022-12-22T08:55:54.165Z,6.24
2022-12-22T09:01:03.562Z,6.46
2022-12-22T09:06:05.903Z,6.61
2022-12-22T09:11:08.253Z,6.88
2022-12-22T09:16:11.447Z,6.84
2022-12-22T09:21:13.888Z,7.20
2022-12-22T09:26:19.634Z,7.47
2022-12-22T09:31:24.401Z,7.68
2022-12-22T09:36:31.036Z,7.89
2022-12-22T09:41:37.791Z,8.04
2022-12-22T09:46:40.901Z,8.10
2022-12-22T09:51:49.984Z,8.30
2022-12-22T09:56:52.442Z,8.15
2022-12-22T10:02:33.973Z,8.44
2022-12-22T10:07:41.380Z,8.53
2022-12-22T10:12:43.713Z,8.60
2022-12-22T10:17:46.175Z,8.69
2022-12-22T10:23:05.645Z,8.76
2022-12-22T10:33:42.554Z,9.21
2022-12-22T10:39:12.033Z,8.97
2022-12-22T11:40:57.614Z,10.26
2022-12-22T11:46:16.909Z,10.25
2022-12-22T11:51:56.410Z,10.62
2022-12-22T11:57:11.351Z,10.52
2022-12-22T12:02:34.898Z,10.94
2022-12-22T12:07:46.822Z,10.91
2022-12-22T12:13:34.799Z,11.28
2022-12-22T12:18:42.218Z,11.33
2022-12-22T12:24:17.649Z,11.39
2022-12-22T12:29:24.258Z,11.42
2022-12-22T12:34:36.163Z,11.32
2022-12-22T12:39:47.015Z,11.50
2022-12-22T12:44:52.686Z,11.44
2022-12-22T12:49:56.234Z,11.85
2022-12-22T12:55:24.304Z,12.01
2022-12-22T13:00:34.979Z,12.20
2022-12-22T13:05:51.014Z,12.29
2022-12-22T13:10:55.881Z,12.33
2022-12-22T13:16:01.303Z,12.54
2022-12-22T13:21:50.287Z,12.57
2022-12-22T13:26:40.130Z,12.46
2022-12-22T13:31:51.720Z,12.75
2022-12-22T13:36:56.325Z,12.82
2022-12-22T13:41:58.761Z,12.91
2022-12-22T13:47:08.093Z,13.05
2022-12-22T13:52:15.601Z,13.14
2022-12-22T13:57:21.786Z,13.23
2022-12-22T14:02:24.091Z,13.45
2022-12-22T14:07:26.355Z,13.48
2022-12-22T14:12:31.860Z,13.58
2022-12-22T14:17:44.547Z,14.11
2022-12-22T14:23:02.321Z,14.39
2022-12-22T14:28:11.928Z,14.47
2022-12-22T14:33:34.341Z,14.87
2022-12-22T14:38:42.418Z,14.90
2022-12-22T14:43:50.413Z,14.58
2022-12-22T14:48:52.827Z,14.50
2022-12-22T14:54:00.397Z,14.22
2022-12-22T14:59:23.999Z,13.56
2022-12-22T15:04:39.380Z,12.86
2022-12-22T15:10:14.403Z,12.15
2022-12-22T15:15:18.140Z,11.96
2022-12-22T15:20:23.290Z,11.48
2022-12-22T15:25:26.470Z,11.07
2022-12-22T15:30:28.817Z,10.84
2022-12-22T15:35:35.733Z,10.63
2022-12-22T15:40:38.021Z,10.37
2022-12-22T15:45:41.452Z,10.17
2022-12-22T15:50:47.579Z,9.90
2022-12-22T15:55:53.670Z,9.83
2022-12-22T16:01:00.385Z,9.66
2022-12-22T16:06:02.634Z,9.28
2022-12-22T16:11:07.874Z,9.40
2022-12-22T16:16:10.195Z,9.22
2022-12-22T16:21:17.347Z,9.13
2022-12-22T16:26:21.785Z,8.99
2022-12-22T16:31:25.492Z,8.81
2022-12-22T16:36:31.076Z,8.78
2022-12-22T16:41:33.328Z,8.63
2022-12-22T16:46:39.502Z,8.63
2022-12-22T16:51:48.967Z,8.36
2022-12-22T16:56:52.403Z,8.44
2022-12-22T17:01:57.506Z,8.19
2022-12-22T17:07:07.039Z,7.99
2022-12-22T17:12:19.141Z,8.00
2022-12-22T17:17:30.953Z,8.10
2022-12-22T17:22:36.753Z,8.07
2022-12-22T17:27:39.308Z,7.91
2022-12-22T17:32:41.462Z,7.93
2022-12-22T17:37:45.677Z,7.75
2022-12-22T17:42:47.952Z,7.60
2022-12-22T17:47:50.310Z,7.52
2022-12-22T17:52:52.847Z,7.62
2022-12-22T17:57:55.680Z,7.48
2022-12-22T18:02:58.808Z,7.51
2022-12-22T18:08:01.322Z,7.51
2022-12-22T18:13:05.329Z,7.58
2022-12-22T18:18:15.059Z,7.53
2022-12-22T18:23:24.018Z,7.50
2022-12-22T18:28:26.183Z,7.40
2022-12-22T18:33:28.367Z,7.16
2022-12-22T18:38:33.053Z,7.31
2022-12-22T18:43:35.251Z,7.09
2022-12-22T18:48:37.457Z,7.08
2022-12-22T18:53:39.867Z,7.11
2022-12-22T18:58:47.026Z,7.01
2022-12-22T19:03:55.064Z,6.63
2022-12-22T19:08:57.266Z,6.91
2022-12-22T19:13:59.444Z,6.72
2022-12-22T19:19:02.049Z,6.79
2022-12-22T19:24:08.813Z,6.64
2022-12-22T19:29:13.745Z,6.76
2022-12-22T19:34:20.330Z,6.75
2022-12-22T19:39:22.613Z,6.44
2022-12-22T19:44:30.879Z,6.42
2022-12-22T19:49:33.275Z,6.32
2022-12-22T19:54:37.871Z,6.38
2022-12-22T19:59:46.884Z,6.32
2022-12-22T20:04:49.950Z,6.23
2022-12-22T20:09:54.526Z,6.24
2022-12-22T20:14:56.681Z,6.08
2022-12-22T20:19:59.239Z,5.79
2022-12-22T20:25:01.646Z,5.59
2022-12-22T20:30:04.386Z,5.93
2022-12-22T20:35:07.071Z,5.86
2022-12-22T20:40:28.652Z,5.95
2022-12-22T20:45:32.132Z,5.77
2022-12-22T20:50:34.941Z,5.66
2022-12-22T20:55:37.201Z,5.46
2022-12-22T21:00:39.472Z,5.65
2022-12-22T21:05:42.208Z,5.44
2022-12-22T21:10:46.312Z,5.47
2022-12-22T21:15:51.335Z,5.47
2022-12-22T21:20:59.626Z,5.43
2022-12-22T21:26:02.110Z,5.28
2022-12-22T21:31:05.160Z,5.47
2022-12-22T21:36:17.695Z,5.54
2022-12-22T21:41:40.300Z,5.52
2022-12-22T21:46:44.741Z,5.45
2022-12-22T21:51:48.356Z,5.27
2022-12-22T21:56:52.711Z,5.37
2022-12-22T22:01:56.759Z,5.12
2022-12-22T22:06:59.478Z,5.31
2022-12-22T22:12:26.401Z,5.31
2022-12-22T22:17:30.374Z,5.19
2022-12-22T22:22:32.543Z,5.13
2022-12-22T22:27:34.754Z,5.16
2022-12-22T22:32:38.008Z,5.33
2022-12-22T22:37:40.373Z,5.06
2022-12-22T22:42:42.732Z,5.14
2022-12-22T22:47:44.895Z,5.21
2022-12-22T22:52:47.481Z,5.26
2022-12-22T22:57:50.962Z,5.19
2022-12-22T23:02:53.841Z,5.33
2022-12-22T23:07:58.081Z,5.25
2022-12-22T23:13:00.296Z,5.22
2022-12-22T23:18:02.583Z,5.23
2022-12-22T23:23:04.834Z,4.99
2022-12-22T23:28:06.987Z,4.95
2022-12-22T23:33:09.220Z,5.16
2022-12-22T23:38:11.406Z,4.82
2022-12-22T23:43:14.035Z,5.02
2022-12-22T23:48:16.268Z,5.03
2022-12-22T23:53:18.497Z,4.95
2022-12-22T23:58:20.846Z,4.93
